sensor_id;sensor_type;location;lat;lon;timestamp;pressure;altitude;pressure_sealevel;temperature;humidity
32747;BME280;19118;50.860;13.662;2023-03-21T00:01:38;96953.16;;;7.24;100.00
32747;BME280;19118;50.860;13.662;2023-03-21T00:06:38;96939.66;;;7.27;100.00
32747;BME280;19118;50.860;13.662;2023-03-21T00:11:39;96942.09;;;7.28;100.00
32747;BME280;19118;50.860;13.662;2023-03-21T00:16:40;96928.31;;;7.26;100.00
32747;BME280;19118;50.860;13.662;2023-03-21T00:21:40;96932.22;;;7.30;100.00
32747;BME280;19118;50.860;13.662;2023-03-21T00:26:42;96937.75;;;7.36;100.00
32747;BME280;19118;50.860;13.662;2023-03-21T00:31:42;96930.84;;;7.35;100.00
32747;BME280;19118;50.860;13.662;2023-03-21T00:36:43;96929.94;;;7.27;100.00
32747;BME280;19118;50.860;13.662;2023-03-21T00:41:43;96929.94;;;7.27;100.00
32747;BME280;19118;50.860;13.662;2023-03-21T00:46:43;96931.94;;;7.25;100.00
32747;BME280;19118;50.860;13.662;2023-03-21T00:51:44;96935.56;;;7.24;100.00
32747;BME280;19118;50.860;13.662;2023-03-21T00:56:44;96933.75;;;7.25;100.00
32747;BME280;19118;50.860;13.662;2023-03-21T01:01:44;96934.91;;;7.22;100.00
32747;BME280;19118;50.860;13.662;2023-03-21T01:06:46;96928.56;;;7.17;100.00
32747;BME280;19118;50.860;13.662;2023-03-21T01:11:48;96920.91;;;7.07;100.00
32747;BME280;19118;50.860;13.662;2023-03-21T01:16:50;96918.66;;;7.04;100.00
32747;BME280;19118;50.860;13.662;2023-03-21T01:21:51;96917.84;;;7.04;100.00
32747;BME280;19118;50.860;13.662;2023-03-21T01:26:52;96925.25;;;7.00;100.00
32747;BME280;19118;50.860;13.662;2023-03-21T01:31:52;96919.72;;;6.95;100.00
32747;BME280;19118;50.860;13.662;2023-03-21T01:36:53;96922.75;;;6.84;100.00
32747;BME280;19118;50.860;13.662;2023-03-21T01:41:54;96919.19;;;6.77;100.00
32747;BME280;19118;50.860;13.662;2023-03-21T01:46:58;96925.06;;;6.79;100.00
32747;BME280;19118;50.860;13.662;2023-03-21T01:52:14;96919.19;;;6.77;100.00
32747;BME280;19118;50.860;13.662;2023-03-21T01:57:22;96919.25;;;6.68;100.00
32747;BME280;19118;50.860;13.662;2023-03-21T02:02:32;96916.50;;;6.62;100.00
32747;BME280;19118;50.860;13.662;2023-03-21T02:07:42;96911.66;;;6.51;100.00
32747;BME280;19118;50.860;13.662;2023-03-21T02:12:46;96903.50;;;6.46;100.00
32747;BME280;19118;50.860;13.662;2023-03-21T02:17:55;96909.28;;;6.33;100.00
32747;BME280;19118;50.860;13.662;2023-03-21T02:23:31;96906.00;;;6.31;100.00
32747;BME280;19118;50.860;13.662;2023-03-21T02:28:40;96899.16;;;6.22;100.00
32747;BME280;19118;50.860;13.662;2023-03-21T02:34:08;96897.34;;;6.22;100.00
32747;BME280;19118;50.860;13.662;2023-03-21T02:39:28;96898.75;;;6.10;100.00
32747;BME280;19118;50.860;13.662;2023-03-21T02:44:44;96895.00;;;6.04;100.00
32747;BME280;19118;50.860;13.662;2023-03-21T02:50:39;96892.13;;;5.83;100.00
32747;BME280;19118;50.860;13.662;2023-03-21T02:55:39;96893.13;;;5.74;100.00
32747;BME280;19118;50.860;13.662;2023-03-21T03:00:43;96892.22;;;5.50;100.00
32747;BME280;19118;50.860;13.662;2023-03-21T03:05:52;96902.75;;;5.34;100.00
32747;BME280;19118;50.860;13.662;2023-03-21T03:11:24;96902.47;;;5.21;100.00
32747;BME280;19118;50.860;13.662;2023-03-21T03:16:38;96903.44;;;5.12;100.00
32747;BME280;19118;50.860;13.662;2023-03-21T03:21:47;96887.38;;;5.15;100.00
32747;BME280;19118;50.860;13.662;2023-03-21T03:26:54;96885.09;;;5.12;100.00
32747;BME280;19118;50.860;13.662;2023-03-21T03:32:17;96885.41;;;5.17;100.00
32747;BME280;19118;50.860;13.662;2023-03-21T03:37:23;96889.97;;;5.31;100.00
32747;BME280;19118;50.860;13.662;2023-03-21T03:42:34;96896.19;;;5.38;100.00
32747;BME280;19118;50.860;13.662;2023-03-21T03:47:51;96911.25;;;5.44;100.00
32747;BME280;19118;50.860;13.662;2023-03-21T03:53:07;96908.66;;;5.44;100.00
32747;BME280;19118;50.860;13.662;2023-03-21T03:58:11;96906.66;;;5.46;100.00
32747;BME280;19118;50.860;13.662;2023-03-21T04:03:15;96908.28;;;5.55;100.00
32747;BME280;19118;50.860;13.662;2023-03-21T04:08:16;96904.00;;;5.54;100.00
32747;BME280;19118;50.860;13.662;2023-03-21T04:13:21;96904.50;;;5.50;100.00
32747;BME280;19118;50.860;13.662;2023-03-21T04:18:35;96910.41;;;5.52;100.00
32747;BME280;19118;50.860;13.662;2023-03-21T04:23:38;96914.84;;;5.51;100.00
32747;BME280;19118;50.860;13.662;2023-03-21T04:28:39;96908.31;;;5.47;100.00
32747;BME280;19118;50.860;13.662;2023-03-21T04:34:02;96900.09;;;5.42;100.00
32747;BME280;19118;50.860;13.662;2023-03-21T04:39:05;96897.00;;;5.31;100.00
32747;BME280;19118;50.860;13.662;2023-03-21T04:44:13;96895.25;;;5.15;100.00
32747;BME280;19118;50.860;13.662;2023-03-21T04:49:14;96898.50;;;5.09;100.00
32747;BME280;19118;50.860;13.662;2023-03-21T04:54:16;96901.94;;;5.17;100.00
32747;BME280;19118;50.860;13.662;2023-03-21T04:59:17;96887.38;;;5.15;100.00
32747;BME280;19118;50.860;13.662;2023-03-21T05:04:18;96891.31;;;5.19;100.00
32747;BME280;19118;50.860;13.662;2023-03-21T05:09:18;96892.28;;;5.26;100.00
32747;BME280;19118;50.860;13.662;2023-03-21T05:14:22;96900.97;;;5.26;100.00
32747;BME280;19118;50.860;13.662;2023-03-21T05:19:28;96897.81;;;5.31;100.00
32747;BME280;19118;50.860;13.662;2023-03-21T05:24:35;96906.31;;;5.49;100.00
32747;BME280;19118;50.860;13.662;2023-03-21T05:29:39;96896.94;;;5.63;100.00
32747;BME280;19118;50.860;13.662;2023-03-21T05:34:41;96896.59;;;5.66;100.00
32747;BME280;19118;50.860;13.662;2023-03-21T05:39:43;96892.13;;;5.83;100.00
32747;BME280;19118;50.860;13.662;2023-03-21T05:44:50;96896.69;;;5.89;100.00
32747;BME280;19118;50.860;13.662;2023-03-21T05:49:55;96895.00;;;6.04;100.00
32747;BME280;19118;50.860;13.662;2023-03-21T05:54:56;96890.00;;;6.18;100.00
32747;BME280;19118;50.860;13.662;2023-03-21T05:59:58;96887.75;;;6.15;100.00
32747;BME280;19118;50.860;13.662;2023-03-21T06:04:58;96882.66;;;6.13;100.00
32747;BME280;19118;50.860;13.662;2023-03-21T06:10:00;96896.47;;;6.07;100.00
32747;BME280;19118;50.860;13.662;2023-03-21T06:15:01;96895.63;;;6.15;100.00
32747;BME280;19118;50.860;13.662;2023-03-21T06:20:07;96897.34;;;6.22;100.00
32747;BME280;19118;50.860;13.662;2023-03-21T06:25:22;96900.59;;;6.32;100.00
32747;BME280;19118;50.860;13.662;2023-03-21T06:30:22;96903.69;;;6.36;100.00
32747;BME280;19118;50.860;13.662;2023-03-21T06:35:55;96905.03;;;6.78;100.00
32747;BME280;19118;50.860;13.662;2023-03-21T06:40:56;96904.63;;;6.89;100.00
32747;BME280;19118;50.860;13.662;2023-03-21T06:45:59;96901.34;;;7.10;100.00
32747;BME280;19118;50.860;13.662;2023-03-21T06:51:00;96917.56;;;7.13;100.00
32747;BME280;19118;50.860;13.662;2023-03-21T06:56:03;96919.22;;;7.14;100.00
32747;BME280;19118;50.860;13.662;2023-03-21T07:01:06;96921.91;;;7.06;100.00
32747;BME280;19118;50.860;13.662;2023-03-21T07:06:13;96934.47;;;7.34;100.00
32747;BME280;19118;50.860;13.662;2023-03-21T07:11:13;96928.88;;;7.37;100.00
32747;BME280;19118;50.860;13.662;2023-03-21T07:16:15;96930.72;;;7.13;100.00
32747;BME280;19118;50.860;13.662;2023-03-21T07:21:16;96928.06;;;6.98;100.00
32747;BME280;19118;50.860;13.662;2023-03-21T07:26:17;96935.84;;;7.29;100.00
32747;BME280;19118;50.860;13.662;2023-03-21T07:31:19;96937.44;;;7.68;100.00
32747;BME280;19118;50.860;13.662;2023-03-21T07:36:21;96928.56;;;7.84;100.00
32747;BME280;19118;50.860;13.662;2023-03-21T07:41:22;96933.91;;;8.05;100.00
32747;BME280;19118;50.860;13.662;2023-03-21T07:46:24;96929.94;;;8.45;100.00
32747;BME280;19118;50.860;13.662;2023-03-21T07:51:24;96932.00;;;9.08;100.00
32747;BME280;19118;50.860;13.662;2023-03-21T07:56:25;96925.75;;;9.15;100.00
32747;BME280;19118;50.860;13.662;2023-03-21T08:01:25;96927.22;;;9.18;100.00
32747;BME280;19118;50.860;13.662;2023-03-21T08:06:28;96928.88;;;8.76;100.00
32747;BME280;19118;50.860;13.662;2023-03-21T08:11:31;96932.00;;;8.86;100.00
32747;BME280;19118;50.860;13.662;2023-03-21T08:16:31;96931.91;;;9.44;100.00
32747;BME280;19118;50.860;13.662;2023-03-21T08:21:32;96934.28;;;10.01;100.00
32747;BME280;19118;50.860;13.662;2023-03-21T08:26:32;96943.25;;;10.48;100.00
32747;BME280;19118;50.860;13.662;2023-03-21T08:31:33;96948.13;;;10.44;100.00
32747;BME280;19118;50.860;13.662;2023-03-21T08:36:35;96949.13;;;11.18;100.00
32747;BME280;19118;50.860;13.662;2023-03-21T08:41:36;96934.84;;;11.52;100.00
32747;BME280;19118;50.860;13.662;2023-03-21T08:46:37;96939.34;;;11.25;100.00
32747;BME280;19118;50.860;13.662;2023-03-21T08:51:37;96934.84;;;11.78;100.00
32747;BME280;19118;50.860;13.662;2023-03-21T08:56:37;96943.81;;;11.64;100.00
32747;BME280;19118;50.860;13.662;2023-03-21T09:01:38;96947.06;;;11.73;100.00
32747;BME280;19118;50.860;13.662;2023-03-21T09:06:39;96949.31;;;11.95;100.00
32747;BME280;19118;50.860;13.662;2023-03-21T09:11:47;96945.25;;;11.66;100.00
32747;BME280;19118;50.860;13.662;2023-03-21T09:16:48;96948.28;;;11.97;100.00
32747;BME280;19118;50.860;13.662;2023-03-21T09:21:49;96941.34;;;12.02;100.00
32747;BME280;19118;50.860;13.662;2023-03-21T09:26:49;96936.34;;;12.39;100.00
32747;BME280;19118;50.860;13.662;2023-03-21T09:31:50;96940.34;;;11.97;99.28
32747;BME280;19118;50.860;13.662;2023-03-21T09:36:52;96925.72;;;11.21;100.00
32747;BME280;19118;50.860;13.662;2023-03-21T09:47:29;96925.03;;;12.12;100.00
32747;BME280;19118;50.860;13.662;2023-03-21T09:58:36;96921.81;;;12.86;98.95
32747;BME280;19118;50.860;13.662;2023-03-21T10:03:39;96926.94;;;13.12;95.74
32747;BME280;19118;50.860;13.662;2023-03-21T10:08:44;96917.97;;;12.37;94.96
32747;BME280;19118;50.860;13.662;2023-03-21T10:14:06;96925.56;;;12.72;97.78
32747;BME280;19118;50.860;13.662;2023-03-21T10:19:14;96917.81;;;13.02;94.66
32747;BME280;19118;50.860;13.662;2023-03-21T10:24:24;96917.09;;;12.88;92.80
32747;BME280;19118;50.860;13.662;2023-03-21T10:29:39;96912.66;;;13.63;92.12
32747;BME280;19118;50.860;13.662;2023-03-21T10:34:47;96910.69;;;14.14;88.67
32747;BME280;19118;50.860;13.662;2023-03-21T10:39:50;96903.25;;;14.22;86.00
32747;BME280;19118;50.860;13.662;2023-03-21T10:44:53;96903.19;;;14.29;86.83
32747;BME280;19118;50.860;13.662;2023-03-21T10:49:54;96906.75;;;15.13;80.24
32747;BME280;19118;50.860;13.662;2023-03-21T10:55:24;96901.09;;;15.21;78.87
32747;BME280;19118;50.860;13.662;2023-03-21T11:00:39;96895.84;;;15.03;78.48
32747;BME280;19118;50.860;13.662;2023-03-21T11:05:40;96894.06;;;15.38;77.86
32747;BME280;19118;50.860;13.662;2023-03-21T11:10:54;96892.06;;;14.80;76.06
32747;BME280;19118;50.860;13.662;2023-03-21T11:16:23;96889.13;;;15.77;74.72
32747;BME280;19118;50.860;13.662;2023-03-21T11:21:23;96890.75;;;15.66;72.46
32747;BME280;19118;50.860;13.662;2023-03-21T11:26:30;96890.25;;;14.93;73.32
32747;BME280;19118;50.860;13.662;2023-03-21T11:31:36;96885.41;;;14.90;75.08
32747;BME280;19118;50.860;13.662;2023-03-21T11:36:37;96879.50;;;14.88;74.44
32747;BME280;19118;50.860;13.662;2023-03-21T11:41:40;96875.56;;;15.67;72.34
32747;BME280;19118;50.860;13.662;2023-03-21T11:46:41;96877.47;;;14.71;73.71
32747;BME280;19118;50.860;13.662;2023-03-21T11:52:13;96871.25;;;14.77;74.69
32747;BME280;19118;50.860;13.662;2023-03-21T12:08:42;96842.75;;;15.31;72.95
32747;BME280;19118;50.860;13.662;2023-03-21T12:13:47;96837.03;;;15.39;72.75
32747;BME280;19118;50.860;13.662;2023-03-21T12:24:17;96833.31;;;15.17;75.69
32747;BME280;19118;50.860;13.662;2023-03-21T12:29:32;96826.94;;;14.95;75.84
32747;BME280;19118;50.860;13.662;2023-03-21T12:35:01;96820.94;;;15.23;76.26
32747;BME280;19118;50.860;13.662;2023-03-21T12:40:25;96821.75;;;15.00;77.06
32747;BME280;19118;50.860;13.662;2023-03-21T12:45:30;96817.34;;;15.17;77.89
32747;BME280;19118;50.860;13.662;2023-03-21T12:50:33;96817.81;;;15.14;76.17
32747;BME280;19118;50.860;13.662;2023-03-21T12:55:37;96801.00;;;15.49;76.34
32747;BME280;19118;50.860;13.662;2023-03-21T13:00:46;96794.50;;;15.80;75.18
32747;BME280;19118;50.860;13.662;2023-03-21T13:05:51;96798.13;;;15.62;73.78
32747;BME280;19118;50.860;13.662;2023-03-21T13:10:54;96797.44;;;15.31;74.66
32747;BME280;19118;50.860;13.662;2023-03-21T13:16:02;96787.13;;;15.35;75.68
32747;BME280;19118;50.860;13.662;2023-03-21T13:26:40;96771.94;;;15.70;74.55
32747;BME280;19118;50.860;13.662;2023-03-21T13:31:48;96767.56;;;15.29;74.17
32747;BME280;19118;50.860;13.662;2023-03-21T13:36:50;96765.69;;;15.41;74.64
32747;BME280;19118;50.860;13.662;2023-03-21T13:41:51;96764.09;;;15.40;74.19
32747;BME280;19118;50.860;13.662;2023-03-21T13:47:04;96753.44;;;15.92;71.71
32747;BME280;19118;50.860;13.662;2023-03-21T13:57:20;96751.44;;;15.48;74.06
32747;BME280;19118;50.860;13.662;2023-03-21T14:02:33;96744.81;;;15.62;75.08
32747;BME280;19118;50.860;13.662;2023-03-21T14:07:35;96749.78;;;15.70;74.83
32747;BME280;19118;50.860;13.662;2023-03-21T14:12:42;96739.28;;;15.52;75.04
32747;BME280;19118;50.860;13.662;2023-03-21T14:17:55;96736.69;;;15.68;72.83
32747;BME280;19118;50.860;13.662;2023-03-21T14:22:55;96728.63;;;16.37;72.13
32747;BME280;19118;50.860;13.662;2023-03-21T14:27:59;96715.97;;;16.44;69.35
32747;BME280;19118;50.860;13.662;2023-03-21T14:33:07;96719.03;;;16.36;69.40
32747;BME280;19118;50.860;13.662;2023-03-21T14:38:23;96710.81;;;16.09;70.44
32747;BME280;19118;50.860;13.662;2023-03-21T14:43:24;96711.94;;;16.13;70.60
32747;BME280;19118;50.860;13.662;2023-03-21T14:48:33;96701.16;;;16.08;69.07
32747;BME280;19118;50.860;13.662;2023-03-21T14:53:38;96700.56;;;15.37;71.28
32747;BME280;19118;50.860;13.662;2023-03-21T14:58:40;96696.78;;;15.33;73.29
32747;BME280;19118;50.860;13.662;2023-03-21T15:03:43;96683.81;;;15.13;74.30
32747;BME280;19118;50.860;13.662;2023-03-21T15:08:55;96684.38;;;15.27;74.19
32747;BME280;19118;50.860;13.662;2023-03-21T15:13:56;96685.00;;;14.82;76.64
32747;BME280;19118;50.860;13.662;2023-03-21T15:18:59;96681.91;;;14.85;78.41
32747;BME280;19118;50.860;13.662;2023-03-21T15:24:04;96677.81;;;14.60;83.36
32747;BME280;19118;50.860;13.662;2023-03-21T15:29:13;96664.81;;;14.28;89.20
32747;BME280;19118;50.860;13.662;2023-03-21T15:34:24;96660.72;;;14.14;92.00
32747;BME280;19118;50.860;13.662;2023-03-21T15:39:27;96646.97;;;14.05;100.00
32747;BME280;19118;50.860;13.662;2023-03-21T15:44:28;96648.66;;;13.88;100.00
32747;BME280;19118;50.860;13.662;2023-03-21T15:49:31;96639.56;;;14.07;100.00
32747;BME280;19118;50.860;13.662;2023-03-21T15:54:46;96638.06;;;14.11;100.00
32747;BME280;19118;50.860;13.662;2023-03-21T15:59:53;96646.06;;;14.35;98.06
32747;BME280;19118;50.860;13.662;2023-03-21T16:05:20;96632.31;;;14.38;95.31
32747;BME280;19118;50.860;13.662;2023-03-21T16:10:31;96636.44;;;14.10;93.53
32747;BME280;19118;50.860;13.662;2023-03-21T16:15:31;96636.75;;;13.90;94.13
32747;BME280;19118;50.860;13.662;2023-03-21T16:20:38;96636.03;;;13.83;93.62
32747;BME280;19118;50.860;13.662;2023-03-21T16:25:41;96630.53;;;13.66;96.70
32747;BME280;19118;50.860;13.662;2023-03-21T16:30:43;96638.44;;;13.25;99.82
32747;BME280;19118;50.860;13.662;2023-03-21T16:35:44;96637.91;;;12.79;100.00
32747;BME280;19118;50.860;13.662;2023-03-21T16:40:44;96636.56;;;12.27;100.00
32747;BME280;19118;50.860;13.662;2023-03-21T16:45:45;96635.13;;;12.00;100.00
32747;BME280;19118;50.860;13.662;2023-03-21T16:50:46;96630.91;;;11.60;100.00
32747;BME280;19118;50.860;13.662;2023-03-21T16:55:47;96630.25;;;11.27;100.00
32747;BME280;19118;50.860;13.662;2023-03-21T17:00:47;96625.59;;;11.22;100.00
32747;BME280;19118;50.860;13.662;2023-03-21T17:05:48;96623.78;;;11.16;100.00
32747;BME280;19118;50.860;13.662;2023-03-21T17:10:48;96625.44;;;11.11;100.00
32747;BME280;19118;50.860;13.662;2023-03-21T17:15:49;96622.00;;;11.10;100.00
32747;BME280;19118;50.860;13.662;2023-03-21T17:20:50;96616.94;;;10.95;100.00
32747;BME280;19118;50.860;13.662;2023-03-21T17:25:50;96621.03;;;10.91;100.00
32747;BME280;19118;50.860;13.662;2023-03-21T17:30:50;96616.56;;;10.92;100.00
32747;BME280;19118;50.860;13.662;2023-03-21T17:35:51;96614.94;;;10.91;100.00
32747;BME280;19118;50.860;13.662;2023-03-21T17:40:51;96616.56;;;10.92;100.00
32747;BME280;19118;50.860;13.662;2023-03-21T17:45:51;96614.09;;;10.97;100.00
32747;BME280;19118;50.860;13.662;2023-03-21T17:50:52;96617.75;;;10.96;100.00
32747;BME280;19118;50.860;13.662;2023-03-21T17:55:52;96615.09;;;10.96;100.00
32747;BME280;19118;50.860;13.662;2023-03-21T18:00:53;96615.09;;;10.96;100.00
32747;BME280;19118;50.860;13.662;2023-03-21T18:05:53;96618.31;;;11.11;100.00
32747;BME280;19118;50.860;13.662;2023-03-21T18:10:53;96628.28;;;11.09;100.00
32747;BME280;19118;50.860;13.662;2023-03-21T18:15:53;96624.44;;;10.98;100.00
32747;BME280;19118;50.860;13.662;2023-03-21T18:20:54;96621.22;;;10.96;100.00
32747;BME280;19118;50.860;13.662;2023-03-21T18:25:54;96623.25;;;10.94;100.00
32747;BME280;19118;50.860;13.662;2023-03-21T18:30:55;96623.03;;;10.96;100.00
32747;BME280;19118;50.860;13.662;2023-03-21T18:35:56;96622.59;;;11.05;100.00
32747;BME280;19118;50.860;13.662;2023-03-21T18:40:56;96619.56;;;11.02;100.00
32747;BME280;19118;50.860;13.662;2023-03-21T18:45:56;96623.03;;;10.96;100.00
32747;BME280;19118;50.860;13.662;2023-03-21T18:50:57;96623.84;;;11.03;100.00
32747;BME280;19118;50.860;13.662;2023-03-21T18:55:57;96620.59;;;11.01;100.00
32747;BME280;19118;50.860;13.662;2023-03-21T19:00:58;96632.81;;;10.95;100.00
32747;BME280;19118;50.860;13.662;2023-03-21T19:05:59;96634.88;;;10.87;100.00
32747;BME280;19118;50.860;13.662;2023-03-21T19:10:59;96629.56;;;10.93;100.00
32747;BME280;19118;50.860;13.662;2023-03-21T19:16:00;96628.59;;;10.88;100.00
32747;BME280;19118;50.860;13.662;2023-03-21T19:21:00;96628.75;;;10.93;100.00
32747;BME280;19118;50.860;13.662;2023-03-21T19:26:02;96629.59;;;10.87;100.00
32747;BME280;19118;50.860;13.662;2023-03-21T19:31:04;96628.97;;;10.85;100.00
32747;BME280;19118;50.860;13.662;2023-03-21T19:36:05;96640.81;;;10.75;100.00
32747;BME280;19118;50.860;13.662;2023-03-21T19:41:06;96639.03;;;10.56;100.00
32747;BME280;19118;50.860;13.662;2023-03-21T19:46:07;96632.97;;;10.23;100.00
32747;BME280;19118;50.860;13.662;2023-03-21T19:51:08;96629.25;;;10.04;100.00
32747;BME280;19118;50.860;13.662;2023-03-21T19:56:09;96628.44;;;9.83;100.00
32747;BME280;19118;50.860;13.662;2023-03-21T20:01:09;96625.56;;;9.58;100.00
32747;BME280;19118;50.860;13.662;2023-03-21T20:06:10;96626.34;;;9.46;100.00
32747;BME280;19118;50.860;13.662;2023-03-21T20:11:11;96618.97;;;9.28;100.00
32747;BME280;19118;50.860;13.662;2023-03-21T20:16:15;96636.63;;;9.21;100.00
32747;BME280;19118;50.860;13.662;2023-03-21T20:21:18;96634.78;;;9.15;100.00
32747;BME280;19118;50.860;13.662;2023-03-21T20:26:19;96625.03;;;9.09;100.00
32747;BME280;19118;50.860;13.662;2023-03-21T20:31:19;96630.25;;;8.95;100.00
32747;BME280;19118;50.860;13.662;2023-03-21T20:36:20;96631.41;;;8.86;100.00
32747;BME280;19118;50.860;13.662;2023-03-21T20:41:21;96628.53;;;8.81;100.00
32747;BME280;19118;50.860;13.662;2023-03-21T20:46:21;96626.50;;;8.83;100.00
32747;BME280;19118;50.860;13.662;2023-03-21T20:51:22;96628.59;;;8.88;100.00
32747;BME280;19118;50.860;13.662;2023-03-21T20:56:22;96628.22;;;8.97;100.00
32747;BME280;19118;50.860;13.662;2023-03-21T21:01:23;96629.03;;;9.04;100.00
32747;BME280;19118;50.860;13.662;2023-03-21T21:06:25;96630.75;;;9.19;100.00
32747;BME280;19118;50.860;13.662;2023-03-21T21:11:26;96627.94;;;9.33;100.00
32747;BME280;19118;50.860;13.662;2023-03-21T21:16:27;96620.63;;;9.36;100.00
32747;BME280;19118;50.860;13.662;2023-03-21T21:21:28;96622.06;;;9.38;100.00
32747;BME280;19118;50.860;13.662;2023-03-21T21:26:30;96627.16;;;9.46;100.00
32747;BME280;19118;50.860;13.662;2023-03-21T21:31:30;96621.09;;;9.52;100.00
32747;BME280;19118;50.860;13.662;2023-03-21T21:36:33;96630.41;;;9.48;100.00
32747;BME280;19118;50.860;13.662;2023-03-21T21:41:34;96636.50;;;9.42;100.00
32747;BME280;19118;50.860;13.662;2023-03-21T21:46:34;96636.50;;;9.42;100.00
32747;BME280;19118;50.860;13.662;2023-03-21T21:51:35;96637.16;;;9.71;100.00
32747;BME280;19118;50.860;13.662;2023-03-21T21:56:35;96642.06;;;9.80;100.00
32747;BME280;19118;50.860;13.662;2023-03-21T22:01:36;96651.22;;;9.91;100.00
32747;BME280;19118;50.860;13.662;2023-03-21T22:06:37;96648.75;;;9.96;100.00
32747;BME280;19118;50.860;13.662;2023-03-21T22:11:37;96647.75;;;10.04;100.00
32747;BME280;19118;50.860;13.662;2023-03-21T22:16:38;96659.34;;;10.09;100.00
32747;BME280;19118;50.860;13.662;2023-03-21T22:21:38;96658.50;;;9.96;100.00
32747;BME280;19118;50.860;13.662;2023-03-21T22:26:39;96658.09;;;9.79;100.00
32747;BME280;19118;50.860;13.662;2023-03-21T22:31:39;96658.28;;;9.71;100.00
32747;BME280;19118;50.860;13.662;2023-03-21T22:36:40;96660.50;;;9.60;100.00
32747;BME280;19118;50.860;13.662;2023-03-21T22:41:46;96666.31;;;9.36;100.00
32747;BME280;19118;50.860;13.662;2023-03-21T22:46:46;96654.28;;;9.27;100.00
32747;BME280;19118;50.860;13.662;2023-03-21T22:51:46;96656.31;;;9.18;100.00
32747;BME280;19118;50.860;13.662;2023-03-21T22:56:47;96661.59;;;9.18;100.00
32747;BME280;19118;50.860;13.662;2023-03-21T23:01:47;96652.22;;;9.09;100.00
32747;BME280;19118;50.860;13.662;2023-03-21T23:06:48;96650.94;;;8.98;100.00
32747;BME280;19118;50.860;13.662;2023-03-21T23:11:48;96644.03;;;8.97;100.00
32747;BME280;19118;50.860;13.662;2023-03-21T23:16:50;96638.31;;;8.87;100.00
32747;BME280;19118;50.860;13.662;2023-03-21T23:21:59;96642.78;;;8.93;100.00
32747;BME280;19118;50.860;13.662;2023-03-21T23:26:59;96634.00;;;8.80;100.00
32747;BME280;19118;50.860;13.662;2023-03-21T23:31:59;96625.06;;;8.74;100.00
32747;BME280;19118;50.860;13.662;2023-03-21T23:37:00;96624.06;;;8.75;100.00
32747;BME280;19118;50.860;13.662;2023-03-21T23:42:00;96611.88;;;8.74;100.00
32747;BME280;19118;50.860;13.662;2023-03-21T23:47:01;96625.28;;;8.79;100.00
32747;BME280;19118;50.860;13.662;2023-03-21T23:52:01;96625.75;;;8.89;100.00
32747;BME280;19118;50.860;13.662;2023-03-21T23:57:02;96631.06;;;8.96;100.00
